Irwin, Pennsylvania
Current Conditions -  °F | °C
As of 7:53 AM on Saturday 22 Nov 2014 (Local Time) from KAGC Reporting Station
Few Clouds Few Clouds  
Wind Chill:   Ceiling: Unl
Heat Index: 21°   Visibility: 8mi
Dew Point:   Wind: 14mph
Humidity: 57%   Direction: 170°S
Pressure: 30.3"   Gusts: NA
Location:  40.32°N, 79.7°W
Report Text: KAGC 221253Z 17012KT 8SM FEW046 M06/M13 A3030 RMK AO2 SLP283 T10611133
Loading
Personal Weather Stations






























Interactive Weather Map New forecast layout! Learn more

10-Day Weather Forecast

Advertisements
Track Severe Weather on mobile